Aviation Digital Data Service (ADDS)

Output produced by METARs form (1200 UTC 26 March 2019)
found at http://www.aviationweather.gov/metar/data/
 
TAF TAPA 260600Z 2606/2706 11013KT 9999 SCT020 
     PROB30 
     TEMPO 2606/2613 SHRA